createdAt,value
2018-12-15T00:02:12.112Z,11.90
2018-12-15T00:04:40.250Z,12.53
2018-12-15T00:07:08.333Z,12.03
2018-12-15T00:09:36.398Z,12.70
2018-12-15T00:12:04.827Z,13.30
2018-12-15T00:14:33.294Z,11.37
2018-12-15T00:17:05.758Z,12.43
2018-12-15T00:19:31.537Z,11.67
2018-12-15T00:21:59.633Z,12.93
2018-12-15T00:24:27.715Z,12.97
2018-12-15T00:26:56.141Z,12.80
2018-12-15T00:29:24.235Z,12.50
2018-12-15T00:31:52.646Z,12.87
2018-12-15T00:34:21.071Z,13.43
2018-12-15T00:36:49.488Z,11.77
2018-12-15T00:39:17.687Z,12.93
2018-12-15T00:41:46.159Z,12.77
2018-12-15T00:44:14.553Z,12.43
2018-12-15T00:46:43.139Z,12.17
2018-12-15T00:49:11.530Z,13.10
2018-12-15T00:51:39.981Z,13.70
2018-12-15T00:54:08.351Z,12.73
2018-12-15T00:56:36.781Z,12.33
2018-12-15T00:59:05.185Z,13.67
2018-12-15T01:01:33.954Z,12.50
2018-12-15T01:04:02.029Z,12.33
2018-12-15T01:06:30.099Z,13.50
2018-12-15T01:08:58.294Z,12.77
2018-12-15T01:11:26.365Z,12.97
2018-12-15T01:13:54.445Z,11.90
2018-12-15T01:16:22.621Z,13.50
2018-12-15T01:18:51.165Z,12.77
2018-12-15T01:21:19.221Z,13.37
2018-12-15T01:23:47.659Z,12.47
2018-12-15T01:26:16.046Z,12.87
2018-12-15T01:28:44.438Z,13.47
2018-12-15T01:31:12.541Z,13.20
2018-12-15T01:33:40.615Z,12.97
2018-12-15T01:36:08.702Z,13.10
2018-12-15T01:38:36.792Z,12.40
2018-12-15T01:41:04.879Z,12.43
2018-12-15T01:43:32.958Z,12.67
2018-12-15T01:46:01.055Z,12.73
2018-12-15T01:48:29.339Z,13.63
2018-12-15T01:50:57.406Z,13.00
2018-12-15T01:53:25.507Z,14.33
2018-12-15T01:55:53.908Z,13.47
2018-12-15T01:58:22.010Z,13.67
2018-12-15T02:00:50.090Z,13.67
2018-12-15T02:03:18.179Z,13.90
2018-12-15T02:05:46.247Z,12.63
2018-12-15T02:08:14.348Z,13.67
2018-12-15T02:10:42.422Z,12.87
2018-12-15T02:13:10.510Z,13.63
2018-12-15T02:15:38.968Z,13.17
2018-12-15T02:18:07.389Z,13.80
2018-12-15T02:20:35.474Z,12.67
2018-12-15T02:23:03.561Z,13.73
2018-12-15T02:25:31.651Z,13.23
2018-12-15T02:27:59.700Z,12.80
2018-12-15T02:30:27.874Z,13.07
2018-12-15T02:32:56.147Z,13.03
2018-12-15T02:35:24.222Z,12.80
2018-12-15T02:37:52.292Z,14.13
2018-12-15T02:40:20.360Z,13.13
2018-12-15T02:42:48.429Z,13.70
2018-12-15T02:45:16.828Z,13.03
2018-12-15T02:47:45.241Z,13.57
2018-12-15T02:50:13.663Z,14.67
2018-12-15T02:52:42.077Z,12.97
2018-12-15T02:55:10.169Z,13.23
2018-12-15T02:57:38.251Z,13.13
2018-12-15T03:00:06.335Z,13.43
2018-12-15T03:02:34.419Z,13.90
2018-12-15T03:05:02.503Z,13.47
2018-12-15T03:07:30.565Z,14.07
2018-12-15T03:09:58.658Z,14.20
2018-12-15T03:12:26.740Z,14.37
2018-12-15T03:14:54.850Z,13.93
2018-12-15T03:17:23.167Z,15.30
2018-12-15T03:19:51.812Z,13.67
2018-12-15T03:22:20.223Z,14.30
2018-12-15T03:24:48.646Z,13.63
2018-12-15T03:27:16.744Z,14.53
2018-12-15T03:29:44.831Z,19.73
2018-12-15T03:32:12.897Z,16.73
2018-12-15T03:34:41.047Z,15.47
2018-12-15T03:37:09.164Z,15.10
2018-12-15T03:39:37.238Z,15.63
2018-12-15T03:42:05.360Z,15.23
2018-12-15T03:44:33.417Z,15.23
2018-12-15T03:47:01.490Z,14.87
2018-12-15T03:49:29.579Z,16.43
2018-12-15T03:51:57.643Z,15.70
2018-12-15T03:54:25.745Z,14.07
2018-12-15T03:56:53.810Z,14.27
2018-12-15T03:59:21.975Z,14.17
2018-12-15T04:01:50.048Z,13.80
2018-12-15T04:04:18.116Z,14.10
2018-12-15T04:06:46.192Z,14.17
2018-12-15T04:09:14.253Z,14.17
2018-12-15T04:11:42.436Z,13.50
2018-12-15T04:14:11.349Z,12.33
2018-12-15T04:16:39.808Z,13.17
2018-12-15T04:19:07.933Z,13.23
2018-12-15T04:21:36.039Z,12.43
2018-12-15T04:24:04.116Z,12.50
2018-12-15T04:26:32.204Z,13.03
2018-12-15T04:29:00.299Z,13.00
2018-12-15T04:31:28.457Z,12.20
2018-12-15T04:33:56.580Z,12.03
2018-12-15T04:36:24.662Z,12.83
2018-12-15T04:38:52.741Z,12.80
2018-12-15T04:41:21.152Z,12.23
2018-12-15T04:43:49.929Z,12.53
2018-12-15T04:46:18.333Z,13.10
2018-12-15T04:48:46.440Z,13.47
2018-12-15T04:51:14.505Z,13.00
2018-12-15T04:53:42.578Z,13.40
2018-12-15T04:56:10.892Z,13.77
2018-12-15T04:58:38.972Z,12.67
2018-12-15T05:01:07.071Z,13.47
2018-12-15T05:03:35.186Z,14.40
2018-12-15T05:06:03.320Z,14.23
2018-12-15T05:08:31.819Z,14.07
2018-12-15T05:11:00.521Z,14.07
2018-12-15T05:13:28.607Z,14.40
2018-12-15T05:15:56.686Z,13.80
2018-12-15T05:18:24.783Z,13.23
2018-12-15T05:20:52.861Z,13.30
2018-12-15T05:23:20.962Z,13.10
2018-12-15T05:25:49.241Z,13.10
2018-12-15T05:28:17.336Z,13.70
2018-12-15T05:30:45.444Z,13.00
2018-12-15T05:33:13.627Z,12.27
2018-12-15T05:35:41.704Z,12.93
2018-12-15T05:38:10.054Z,12.77
2018-12-15T05:40:38.143Z,13.53
2018-12-15T05:43:06.589Z,13.23
2018-12-15T05:45:34.992Z,12.67
2018-12-15T05:48:03.439Z,12.97
2018-12-15T05:50:31.512Z,13.00
2018-12-15T05:52:59.591Z,13.33
2018-12-15T05:55:27.698Z,13.00
2018-12-15T05:57:55.756Z,13.33
2018-12-15T06:00:23.959Z,13.80
2018-12-15T06:02:52.053Z,13.63
2018-12-15T06:05:20.260Z,14.57
2018-12-15T06:07:48.452Z,12.97
2018-12-15T06:10:16.509Z,13.10
2018-12-15T06:12:44.588Z,12.87
2018-12-15T06:15:12.674Z,13.10
2018-12-15T06:17:40.794Z,12.93
2018-12-15T06:20:09.520Z,14.30
2018-12-15T06:22:37.941Z,13.30
2018-12-15T06:25:06.027Z,13.93
2018-12-15T06:27:34.103Z,13.67
2018-12-15T06:30:02.199Z,12.73
2018-12-15T06:32:30.283Z,13.60
2018-12-15T06:34:58.407Z,14.13
2018-12-15T06:37:26.625Z,14.00
2018-12-15T06:39:54.764Z,13.63
2018-12-15T06:42:22.836Z,13.57
2018-12-15T06:44:50.906Z,14.03
2018-12-15T06:47:19.062Z,13.80
2018-12-15T06:52:22.206Z,14.57
2018-12-15T06:54:50.427Z,13.30
2018-12-15T06:57:18.505Z,13.80
2018-12-15T06:59:46.605Z,14.33
2018-12-15T07:02:15.158Z,13.57
2018-12-15T07:04:43.250Z,14.37
2018-12-15T07:07:11.353Z,14.73
2018-12-15T07:09:39.430Z,14.53
2018-12-15T07:12:07.506Z,13.70
2018-12-15T07:14:35.600Z,14.17
2018-12-15T07:17:03.696Z,14.00
2018-12-15T07:19:31.763Z,13.83
2018-12-15T07:21:59.823Z,14.80
2018-12-15T07:24:28.170Z,14.20
2018-12-15T07:26:56.567Z,13.47
2018-12-15T07:29:24.691Z,13.00
2018-12-15T07:31:53.093Z,12.83
2018-12-15T07:34:21.190Z,13.40
2018-12-15T07:36:49.285Z,14.47
2018-12-15T07:39:17.384Z,13.90
2018-12-15T07:41:45.493Z,13.73
2018-12-15T07:44:13.568Z,13.03
2018-12-15T07:46:41.695Z,13.30
2018-12-15T07:49:09.765Z,12.93
2018-12-15T07:51:37.893Z,13.43
2018-12-15T07:54:05.983Z,14.37
2018-12-15T07:56:34.086Z,12.70
2018-12-15T07:59:02.223Z,13.10
2018-12-15T08:01:30.366Z,13.07
2018-12-15T08:03:58.432Z,13.17
2018-12-15T08:06:26.524Z,13.17
2018-12-15T08:08:54.809Z,13.57
2018-12-15T08:11:28.553Z,13.17
2018-12-15T08:14:03.363Z,12.73
2018-12-15T08:16:32.143Z,11.90
2018-12-15T08:19:00.492Z,14.20
2018-12-15T08:21:28.791Z,13.67
2018-12-15T08:23:56.957Z,13.87
2018-12-15T08:26:25.019Z,14.00
2018-12-15T08:28:53.160Z,14.13
2018-12-15T08:31:21.285Z,13.13
2018-12-15T08:33:49.456Z,13.63
2018-12-15T08:36:17.562Z,15.10
2018-12-15T08:38:45.714Z,13.63
2018-12-15T08:41:15.987Z,13.97
2018-12-15T08:43:44.221Z,13.60
2018-12-15T08:46:14.671Z,13.07
2018-12-15T08:48:42.761Z,13.80
2018-12-15T08:51:11.016Z,12.03
2018-12-15T08:53:39.184Z,12.97
2018-12-15T08:56:07.254Z,12.37
2018-12-15T08:58:35.375Z,13.30
2018-12-15T09:01:03.526Z,13.27
2018-12-15T09:03:31.614Z,13.70
2018-12-15T09:05:59.705Z,13.50
2018-12-15T09:08:27.798Z,13.70
2018-12-15T09:10:55.889Z,14.13
2018-12-15T09:13:23.989Z,13.17
2018-12-15T09:15:52.069Z,13.87
2018-12-15T09:18:20.293Z,13.30
2018-12-15T09:20:48.779Z,14.40
2018-12-15T09:23:16.850Z,13.27
2018-12-15T09:25:45.382Z,13.80
2018-12-15T09:28:13.551Z,13.30
2018-12-15T09:30:41.677Z,14.00
2018-12-15T09:33:09.748Z,15.00
2018-12-15T09:35:37.856Z,14.13
2018-12-15T09:38:05.949Z,14.70
2018-12-15T09:40:34.066Z,14.83
2018-12-15T09:43:02.190Z,13.87
2018-12-15T09:45:30.265Z,14.57
2018-12-15T09:47:58.393Z,13.80
2018-12-15T09:50:26.474Z,14.70
2018-12-15T09:52:54.532Z,14.70
2018-12-15T09:55:22.626Z,14.73
2018-12-15T09:57:50.732Z,14.70
2018-12-15T10:00:18.821Z,14.53
2018-12-15T10:02:46.892Z,15.87
2018-12-15T10:05:15.258Z,14.93
2018-12-15T10:07:43.322Z,15.90
2018-12-15T10:10:11.429Z,14.33
2018-12-15T10:12:39.859Z,15.10
2018-12-15T10:15:07.946Z,15.97
2018-12-15T10:17:36.082Z,15.70
2018-12-15T10:20:05.233Z,16.60
2018-12-15T10:22:33.307Z,15.10
2018-12-15T10:25:01.403Z,15.93
2018-12-15T10:27:29.868Z,15.47
2018-12-15T10:30:03.550Z,14.23
2018-12-15T10:32:37.228Z,14.90
2018-12-15T10:35:05.765Z,15.00
2018-12-15T10:37:33.838Z,14.27
2018-12-15T10:40:01.981Z,14.40
2018-12-15T10:42:30.107Z,15.37
2018-12-15T10:44:58.166Z,15.17
2018-12-15T10:47:26.263Z,13.50
2018-12-15T10:49:54.697Z,15.00
2018-12-15T10:52:22.775Z,14.20
2018-12-15T10:54:50.852Z,14.80
2018-12-15T10:57:18.928Z,15.60
2018-12-15T10:59:46.985Z,15.03
2018-12-15T11:02:15.095Z,15.53
2018-12-15T11:04:43.172Z,14.13
2018-12-15T11:07:11.276Z,14.13
2018-12-15T11:09:39.346Z,14.83
2018-12-15T11:12:07.463Z,14.80
2018-12-15T11:14:35.537Z,15.40
2018-12-15T11:17:04.006Z,14.60
2018-12-15T11:19:37.164Z,14.10
2018-12-15T11:22:02.209Z,14.23
2018-12-15T11:24:30.279Z,15.03
2018-12-15T11:26:58.423Z,15.13
2018-12-15T11:29:26.495Z,14.87
2018-12-15T11:31:54.580Z,15.60
2018-12-15T11:34:22.696Z,14.87
2018-12-15T11:36:51.123Z,14.93
2018-12-15T11:39:19.208Z,15.37
2018-12-15T11:41:47.304Z,14.43
2018-12-15T11:44:15.418Z,14.80
2018-12-15T11:46:43.496Z,14.70
2018-12-15T11:49:11.601Z,14.40
2018-12-15T11:51:39.671Z,14.07
2018-12-15T11:54:07.768Z,15.47
2018-12-15T11:56:35.850Z,14.20
2018-12-15T11:59:04.025Z,13.93
2018-12-15T12:01:32.342Z,14.47
2018-12-15T12:04:00.766Z,14.07
2018-12-15T12:06:28.855Z,13.97
2018-12-15T12:08:56.963Z,14.03
2018-12-15T12:11:25.030Z,13.67
2018-12-15T12:13:53.140Z,13.20
2018-12-15T12:16:21.359Z,12.57
2018-12-15T12:18:49.483Z,13.40
2018-12-15T12:21:17.889Z,12.93
2018-12-15T12:23:45.994Z,13.50
2018-12-15T12:26:14.063Z,13.70
2018-12-15T12:28:42.162Z,13.80
2018-12-15T12:31:10.244Z,14.50
2018-12-15T12:33:38.370Z,14.17
2018-12-15T12:36:06.760Z,13.50
2018-12-15T12:38:34.833Z,14.37
2018-12-15T12:41:02.941Z,13.77
2018-12-15T12:43:31.347Z,13.80
2018-12-15T12:45:59.451Z,13.90
2018-12-15T12:48:27.532Z,13.40
2018-12-15T12:50:55.622Z,13.47
2018-12-15T12:53:23.751Z,13.57
2018-12-15T12:55:51.837Z,13.63
2018-12-15T12:58:19.934Z,13.83
2018-12-15T13:00:48.044Z,13.50
2018-12-15T13:03:16.151Z,14.33
2018-12-15T13:05:44.252Z,13.63
2018-12-15T13:08:12.312Z,13.50
2018-12-15T13:10:40.437Z,13.33
2018-12-15T13:13:08.834Z,12.70
2018-12-15T13:15:36.960Z,13.37
2018-12-15T13:18:05.091Z,13.53
2018-12-15T13:20:33.183Z,13.30
2018-12-15T13:23:01.259Z,12.77
2018-12-15T13:25:29.404Z,13.87
2018-12-15T13:27:57.511Z,13.13
2018-12-15T13:30:25.874Z,12.83
2018-12-15T13:32:53.961Z,12.37
2018-12-15T13:35:22.045Z,14.10
2018-12-15T13:37:50.214Z,13.00
2018-12-15T13:40:18.301Z,13.37
2018-12-15T13:42:46.456Z,12.57
2018-12-15T13:45:14.832Z,13.20
2018-12-15T13:47:42.992Z,13.57
2018-12-15T13:50:11.074Z,13.30
2018-12-15T13:52:39.560Z,12.83
2018-12-15T13:55:07.850Z,13.30
2018-12-15T13:57:35.919Z,12.63
2018-12-15T14:00:04.496Z,14.00
2018-12-15T14:02:32.900Z,12.17
2018-12-15T14:05:01.032Z,12.80
2018-12-15T14:07:29.172Z,12.17
2018-12-15T14:09:57.801Z,13.07
2018-12-15T14:12:25.917Z,13.77
2018-12-15T14:14:54.106Z,12.30
2018-12-15T14:17:22.163Z,13.67
2018-12-15T14:19:50.236Z,13.23
2018-12-15T14:22:18.353Z,13.23
2018-12-15T14:24:46.470Z,13.90
2018-12-15T14:27:14.607Z,13.20
2018-12-15T14:29:43.020Z,12.60
2018-12-15T14:32:11.415Z,13.73
2018-12-15T14:34:39.569Z,13.77
2018-12-15T14:37:09.521Z,13.53
2018-12-15T14:39:37.591Z,13.63
2018-12-15T14:42:05.701Z,13.43
2018-12-15T14:44:33.778Z,12.73
2018-12-15T14:47:01.895Z,13.13
2018-12-15T14:49:30.017Z,13.67
2018-12-15T14:51:58.206Z,13.47
2018-12-15T14:54:26.301Z,13.23
2018-12-15T14:56:54.771Z,14.10
2018-12-15T14:59:22.850Z,13.23
2018-12-15T15:01:50.928Z,14.17
2018-12-15T15:04:19.375Z,13.33
2018-12-15T15:06:47.463Z,14.43
2018-12-15T15:09:15.905Z,13.77
2018-12-15T15:11:44.323Z,13.10
2018-12-15T15:14:16.268Z,13.53
2018-12-15T15:16:44.676Z,13.17
2018-12-15T15:19:13.189Z,13.60
2018-12-15T15:21:41.870Z,13.60
2018-12-15T15:24:10.289Z,13.13
2018-12-15T15:26:42.003Z,13.30
2018-12-15T15:29:10.846Z,14.10
2018-12-15T15:31:39.926Z,13.73
2018-12-15T15:34:07.994Z,12.83
2018-12-15T15:36:36.433Z,13.63
2018-12-15T15:39:06.367Z,13.73
2018-12-15T15:41:34.455Z,14.43
2018-12-15T15:44:02.548Z,14.47
2018-12-15T15:46:30.961Z,14.53
2018-12-15T15:48:59.050Z,14.20
2018-12-15T15:51:27.443Z,13.63
2018-12-15T15:53:55.898Z,15.07
2018-12-15T15:56:23.978Z,14.27
2018-12-15T15:58:52.397Z,14.97
2018-12-15T16:01:20.814Z,15.47
2018-12-15T16:03:48.937Z,14.50
2018-12-15T16:06:17.341Z,13.47
2018-12-15T16:08:45.765Z,14.43
2018-12-15T16:11:14.256Z,14.83
2018-12-15T16:13:42.318Z,14.30
2018-12-15T16:19:06.983Z,13.67
2018-12-15T16:21:35.150Z,13.90
2018-12-15T16:24:03.230Z,13.90
2018-12-15T16:26:31.325Z,14.10
2018-12-15T16:28:59.733Z,13.60
2018-12-15T16:31:27.813Z,14.10
2018-12-15T16:33:55.953Z,13.93
2018-12-15T16:36:24.046Z,12.90
2018-12-15T16:38:52.113Z,13.93
2018-12-15T16:41:20.207Z,13.13
2018-12-15T16:43:48.301Z,13.30
2018-12-15T16:46:16.379Z,12.60
2018-12-15T16:48:44.486Z,12.70
2018-12-15T16:51:12.898Z,13.83
2018-12-15T16:53:41.017Z,13.23
2018-12-15T16:56:12.773Z,12.33
2018-12-15T16:58:40.869Z,13.60
2018-12-15T17:01:08.953Z,13.53
2018-12-15T17:03:37.072Z,13.57
2018-12-15T17:06:05.508Z,13.30
2018-12-15T17:08:33.602Z,13.80
2018-12-15T17:11:01.712Z,13.90
2018-12-15T17:13:29.819Z,13.00
2018-12-15T17:15:57.910Z,13.63
2018-12-15T17:18:26.015Z,13.43
2018-12-15T17:20:56.729Z,13.57
2018-12-15T17:23:25.969Z,13.13
2018-12-15T17:25:54.066Z,14.23
2018-12-15T17:28:22.499Z,13.83
2018-12-15T17:30:50.563Z,12.80
2018-12-15T17:33:18.656Z,12.23
2018-12-15T17:35:46.758Z,11.70
2018-12-15T17:38:14.905Z,11.63
2018-12-15T17:40:42.999Z,12.23
2018-12-15T17:43:11.082Z,11.37
2018-12-15T17:45:39.163Z,11.03
2018-12-15T17:48:07.237Z,11.93
2018-12-15T17:50:35.310Z,11.97
2018-12-15T17:53:03.401Z,10.97
2018-12-15T17:55:31.486Z,11.80
2018-12-15T17:57:59.551Z,11.77
2018-12-15T18:00:27.647Z,10.70
2018-12-15T18:02:55.712Z,11.10
2018-12-15T18:05:23.812Z,11.83
2018-12-15T18:07:51.878Z,11.13
2018-12-15T18:10:19.969Z,11.93
2018-12-15T18:12:48.034Z,11.47
2018-12-15T18:15:16.108Z,11.20
2018-12-15T18:17:44.170Z,12.13
2018-12-15T18:20:12.355Z,12.03
2018-12-15T18:22:40.411Z,11.63
2018-12-15T18:25:08.528Z,11.63
2018-12-15T18:27:37.152Z,12.30
2018-12-15T18:30:07.829Z,11.73
2018-12-15T18:32:35.907Z,10.90
2018-12-15T18:35:04.045Z,12.60
2018-12-15T18:37:32.123Z,11.47
2018-12-15T18:40:00.216Z,11.70
2018-12-15T18:42:28.268Z,11.30
2018-12-15T18:44:56.362Z,11.80
2018-12-15T18:47:24.450Z,12.50
2018-12-15T18:49:52.520Z,11.30
2018-12-15T18:52:20.601Z,13.10
2018-12-15T18:54:48.699Z,11.83
2018-12-15T18:57:17.094Z,14.23
2018-12-15T18:59:45.176Z,12.23
2018-12-15T19:02:13.257Z,12.27
2018-12-15T19:04:41.349Z,12.97
2018-12-15T19:07:09.399Z,13.60
2018-12-15T19:09:37.459Z,13.33
2018-12-15T19:12:05.531Z,13.07
2018-12-15T19:14:33.601Z,14.20
2018-12-15T19:17:01.674Z,13.50
2018-12-15T19:19:30.090Z,13.13
2018-12-15T19:21:58.505Z,13.97
2018-12-15T19:24:26.580Z,13.83
2018-12-15T19:26:55.004Z,13.53
2018-12-15T19:29:23.070Z,14.23
2018-12-15T19:31:51.170Z,12.63
2018-12-15T19:34:19.229Z,14.40
2018-12-15T19:36:47.331Z,13.93
2018-12-15T19:39:15.393Z,14.47
2018-12-15T19:41:43.491Z,14.17
2018-12-15T19:44:11.560Z,14.77
2018-12-15T19:46:39.641Z,13.70
2018-12-15T19:49:07.715Z,14.03
2018-12-15T19:51:35.801Z,13.97
2018-12-15T19:54:03.881Z,16.33
2018-12-15T19:56:33.140Z,16.57
2018-12-15T19:59:01.548Z,15.00
2018-12-15T20:01:29.609Z,15.63
2018-12-15T20:03:57.755Z,15.30
2018-12-15T20:06:26.045Z,14.87
2018-12-15T20:08:54.156Z,16.47
2018-12-15T20:11:22.238Z,16.37
2018-12-15T20:13:50.311Z,16.03
2018-12-15T20:16:18.405Z,15.67
2018-12-15T20:18:46.463Z,14.73
2018-12-15T20:21:14.856Z,16.30
2018-12-15T20:23:42.946Z,15.70
2018-12-15T20:26:11.019Z,15.77
2018-12-15T20:28:39.430Z,15.87
2018-12-15T20:31:07.849Z,15.80
2018-12-15T20:33:35.911Z,14.07
2018-12-15T20:36:04.341Z,14.63
2018-12-15T20:38:32.429Z,15.27
2018-12-15T20:41:00.522Z,15.43
2018-12-15T20:43:28.588Z,15.43
2018-12-15T20:45:56.670Z,15.13
2018-12-15T20:48:24.767Z,14.97
2018-12-15T20:50:52.824Z,14.77
2018-12-15T20:53:20.900Z,13.83
2018-12-15T20:55:48.996Z,14.37
2018-12-15T20:58:17.102Z,14.70
2018-12-15T21:00:45.165Z,13.97
2018-12-15T21:03:13.246Z,14.13
2018-12-15T21:05:41.345Z,13.53
2018-12-15T21:08:09.427Z,13.17
2018-12-15T21:10:37.502Z,13.60
2018-12-15T21:13:05.609Z,13.37
2018-12-15T21:15:35.414Z,12.27
2018-12-15T21:18:03.481Z,12.40
2018-12-15T21:20:31.586Z,13.17
2018-12-15T21:22:59.658Z,12.70
2018-12-15T21:25:27.713Z,12.90
2018-12-15T21:27:55.802Z,11.77
2018-12-15T21:30:23.871Z,11.70
2018-12-15T21:32:51.966Z,12.77
2018-12-15T21:35:20.029Z,12.07
2018-12-15T21:37:48.138Z,11.10
2018-12-15T21:40:16.207Z,11.37
2018-12-15T21:42:44.301Z,11.73
2018-12-15T21:45:12.378Z,11.73
2018-12-15T21:47:41.823Z,11.80
2018-12-15T21:50:10.214Z,12.40
2018-12-15T21:52:38.292Z,11.40
2018-12-15T21:55:06.418Z,11.20
2018-12-15T21:57:34.496Z,12.20
2018-12-15T22:00:02.617Z,12.43
2018-12-15T22:02:30.696Z,12.60
2018-12-15T22:04:58.771Z,12.53
2018-12-15T22:07:26.839Z,11.67
2018-12-15T22:09:54.930Z,11.50
2018-12-15T22:12:23.330Z,12.27
2018-12-15T22:14:51.746Z,12.13
2018-12-15T22:17:20.145Z,12.00
2018-12-15T22:19:48.572Z,12.00
2018-12-15T22:22:16.635Z,12.53
2018-12-15T22:24:44.825Z,12.50
2018-12-15T22:27:12.904Z,12.37
2018-12-15T22:29:40.976Z,13.03
2018-12-15T22:32:09.060Z,13.10
2018-12-15T22:34:37.115Z,11.93
2018-12-15T22:37:05.214Z,12.60
2018-12-15T22:39:33.267Z,13.10
2018-12-15T22:42:01.366Z,13.60
2018-12-15T22:44:29.430Z,12.47
2018-12-15T22:46:57.496Z,13.27
2018-12-15T22:49:25.581Z,13.00
2018-12-15T22:51:53.659Z,13.70
2018-12-15T22:54:21.766Z,13.47
2018-12-15T22:56:49.847Z,13.63
2018-12-15T22:59:17.936Z,13.07
2018-12-15T23:01:45.989Z,13.60
2018-12-15T23:04:14.844Z,13.57
2018-12-15T23:06:43.324Z,13.83
2018-12-15T23:09:11.408Z,13.37
2018-12-15T23:11:39.499Z,13.90
2018-12-15T23:14:07.607Z,13.10
2018-12-15T23:16:35.681Z,13.97
2018-12-15T23:19:03.806Z,13.70
2018-12-15T23:21:31.890Z,13.53
2018-12-15T23:23:59.963Z,14.13
2018-12-15T23:26:28.059Z,14.13
2018-12-15T23:28:56.144Z,13.03
2018-12-15T23:31:24.206Z,13.13
2018-12-15T23:33:52.308Z,12.77
2018-12-15T23:36:20.399Z,12.70
2018-12-15T23:38:48.456Z,12.90
2018-12-15T23:41:16.528Z,13.03
2018-12-15T23:43:44.637Z,13.20
2018-12-15T23:46:12.705Z,12.57
2018-12-15T23:48:40.784Z,12.70
2018-12-15T23:51:09.210Z,11.93
2018-12-15T23:53:37.616Z,13.53
2018-12-15T23:56:06.020Z,12.00
2018-12-15T23:58:34.425Z,12.47
